Time;durP1;ratioP1;P1;durP2;ratioP2;P2;SDS_P1;SDS_P2;PMS_P1;PMS_P2;Temp;Humidity;BMP_temperature;BMP_pressure;BME280_temperature;BME280_humidity;BME280_pressure;Samples;Min_cycle;Max_cycle;Signal;HPM_P1;HPM_P2
2023/10/12 00:00:25;;;;;;;3.08;1.98;;;;;;;6.45;90.51;98551.69;5053788;28;20045;-36
2023/10/12 00:02:52;;;;;;;3.40;1.98;;;;;;;6.46;89.94;98551.63;5053277;28;20033;-36
2023/10/12 00:05:19;;;;;;;3.30;1.70;;;;;;;6.50;90.02;98552.38;5082506;28;20159;-37
2023/10/12 00:07:49;;;;;;;3.45;1.73;;;;;;;6.50;88.20;98568.69;5058577;28;20064;-37
2023/10/12 00:12:47;;;;;;;2.10;1.63;;;;;;;6.29;87.13;98539.31;5064777;28;20064;-36
2023/10/12 00:17:48;;;;;;;5.95;2.28;;;;;;;6.59;85.76;98526.22;5063846;28;20067;-37
2023/10/12 00:23:01;;;;;;;4.80;1.90;;;;;;;6.54;86.27;98521.22;5064364;28;20645;-37
2023/10/12 00:25:33;;;;;;;2.35;1.40;;;;;;;6.50;88.19;98514.47;5036113;28;20052;-36
2023/10/12 00:27:59;;;;;;;3.65;1.55;;;;;;;6.15;91.06;98477.06;5066377;28;20079;-37
2023/10/12 00:30:25;;;;;;;2.60;1.65;;;;;;;6.11;94.99;98492.69;5068870;28;20044;-36
2023/10/12 00:32:52;;;;;;;4.88;1.88;;;;;;;5.92;97.51;98469.28;5050647;28;20482;-36
2023/10/12 00:35:19;;;;;;;5.57;1.63;;;;;;;5.83;99.64;98449.78;5067020;28;20040;-37
2023/10/12 00:37:45;;;;;;;4.85;2.17;;;;;;;5.81;100.00;98450.75;5066661;28;20040;-36
2023/10/12 00:40:23;;;;;;;1.67;1.40;;;;;;;5.78;100.00;98441.38;5066302;28;20048;-36
2023/10/12 00:42:53;;;;;;;6.35;2.42;;;;;;;5.78;100.00;98449.09;5084498;28;20400;-37
2023/10/12 00:45:29;;;;;;;4.43;2.00;;;;;;;5.78;100.00;98443.94;5067111;28;20060;-36
2023/10/12 00:48:01;;;;;;;6.47;2.90;;;;;;;5.73;100.00;98447.56;5069848;28;20045;-37
2023/10/12 00:50:29;;;;;;;3.47;1.65;;;;;;;5.62;100.00;98427.31;5070297;28;20052;-36
2023/10/12 00:52:56;;;;;;;8.57;2.20;;;;;;;5.87;100.00;98469.44;5054152;28;20028;-36
2023/10/12 00:55:36;;;;;;;3.60;2.22;;;;;;;5.94;100.00;98481.22;5064811;28;20040;-36
2023/10/12 00:58:08;;;;;;;3.67;1.98;;;;;;;6.01;100.00;98486.19;5067428;28;20044;-36
2023/10/12 01:00:51;;;;;;;2.92;1.55;;;;;;;6.09;100.00;98481.59;5068664;28;20069;-36
2023/10/12 01:03:36;;;;;;;3.47;2.10;;;;;;;6.16;100.00;98478.75;5064886;28;20153;-37
2023/10/12 01:08:42;;;;;;;3.65;1.95;;;;;;;6.18;99.09;98447.69;5064456;28;20037;-36
2023/10/12 01:11:18;;;;;;;5.35;1.77;;;;;;;6.44;97.79;98463.06;5064226;28;20438;-36
2023/10/12 01:13:45;;;;;;;5.50;2.17;;;;;;;6.52;97.27;98453.31;5052751;28;20127;-36
2023/10/12 01:16:23;;;;;;;6.43;1.90;;;;;;;6.39;95.96;98406.47;5067500;28;20036;-36
2023/10/12 01:18:59;;;;;;;4.40;1.63;;;;;;;6.67;95.11;98426.06;5081562;28;20097;-36
2023/10/12 01:21:28;;;;;;;3.78;1.58;;;;;;;6.76;93.57;98431.72;5068219;28;20453;-36
2023/10/12 01:24:02;;;;;;;;;;;;;;;6.85;92.23;98416.75;5085102;28;20131;-37
2023/10/12 01:26:31;;;;;;;5.78;1.90;;;;;;;6.90;94.04;98427.75;5068596;28;19968;-37
2023/10/12 01:28:59;;;;;;;3.78;2.10;;;;;;;6.97;89.46;98426.59;5066946;28;20044;-37
2023/10/12 01:31:29;;;;;;;4.13;2.22;;;;;;;6.76;87.83;98341.31;5042208;28;20045;-37
2023/10/12 01:33:57;;;;;;;4.50;1.85;;;;;;;7.13;88.83;98392.31;5051380;28;20515;-39
2023/10/12 01:36:30;;;;;;;5.88;2.00;;;;;;;7.17;87.59;98395.63;5076137;28;20051;-36
2023/10/12 01:39:12;;;;;;;5.40;2.00;;;;;;;7.23;87.68;98403.13;5050522;28;20519;-36
2023/10/12 01:41:42;;;;;;;3.45;1.60;;;;;;;7.28;86.96;98393.44;5067964;28;20055;-36
2023/10/12 01:44:10;;;;;;;6.43;2.22;;;;;;;7.34;87.43;98367.31;5067960;28;20075;-36
2023/10/12 01:46:43;;;;;;;4.20;1.60;;;;;;;7.27;85.63;98316.81;5066808;28;20529;-36
2023/10/12 01:49:13;;;;;;;4.70;2.00;;;;;;;7.42;85.90;98331.66;5042892;28;20122;-37
2023/10/12 01:51:42;;;;;;;4.70;2.08;;;;;;;7.30;84.99;98316.66;5068366;28;20139;-38
2023/10/12 01:54:12;;;;;;;4.55;2.28;;;;;;;7.49;86.27;98345.13;5068957;28;20059;-37
2023/10/12 01:56:39;;;;;;;5.03;2.03;;;;;;;7.52;85.07;98345.03;5066631;28;20054;-36
2023/10/12 01:59:07;;;;;;;3.20;1.52;;;;;;;7.55;85.21;98357.81;5047513;28;20071;-35
2023/10/12 02:01:34;;;;;;;4.30;2.10;;;;;;;7.56;83.67;98333.63;5067781;28;20119;-37
2023/10/12 02:04:03;;;;;;;3.80;2.17;;;;;;;7.56;82.91;98325.88;5067801;28;20087;-37
2023/10/12 02:06:29;;;;;;;4.53;2.28;;;;;;;7.25;82.90;98272.09;5067563;28;20049;-37
2023/10/12 02:09:02;;;;;;;5.55;2.08;;;;;;;7.50;82.91;98329.56;5078926;28;20044;-36
2023/10/12 02:11:37;;;;;;;6.60;2.58;;;;;;;7.48;84.12;98339.16;5049989;28;20532;-36
2023/10/12 02:14:04;;;;;;;8.10;2.40;;;;;;;7.51;85.48;98325.25;5067963;28;20156;-37
2023/10/12 02:16:31;;;;;;;5.18;1.70;;;;;;;7.48;84.12;98307.28;5067264;28;20044;-37
2023/10/12 02:18:58;;;;;;;5.78;2.10;;;;;;;7.36;83.87;98282.81;5067090;28;20158;-36
2023/10/12 02:21:26;;;;;;;3.35;1.60;;;;;;;7.52;84.03;98282.97;5067429;28;20048;-37
2023/10/12 02:26:37;;;;;;;4.28;2.22;;;;;;;7.57;85.06;98324.97;5083687;28;20178;-36
2023/10/12 02:34:16;;;;;;;7.95;2.50;;;;;;;7.64;82.95;98272.09;5067342;28;20040;-37
2023/10/12 02:39:28;;;;;;;3.20;1.92;;;;;;;7.73;81.29;98288.91;5048720;28;20049;-37
2023/10/12 02:42:11;;;;;;;3.72;1.67;;;;;;;7.75;80.23;98268.97;5066758;28;20045;-36
2023/10/12 02:44:50;;;;;;;9.93;2.28;;;;;;;7.77;79.66;98264.59;5040991;28;20409;-36
2023/10/12 02:47:23;;;;;;;4.68;1.67;;;;;;;7.84;79.81;98251.31;5062870;28;20060;-36
2023/10/12 02:52:31;;;;;;;6.13;2.58;;;;;;;7.92;78.19;98249.19;5067840;28;20045;-36
2023/10/12 02:55:07;;;;;;;4.05;2.33;;;;;;;7.92;79.05;98205.22;5065074;28;20044;-36
2023/10/12 02:57:33;;;;;;;7.57;2.78;;;;;;;7.91;78.51;98216.47;5067898;28;20044;-36
2023/10/12 03:00:14;;;;;;;6.43;1.67;;;;;;;7.93;79.81;98222.41;5064367;28;20098;-36
2023/10/12 03:02:49;;;;;;;8.57;2.47;;;;;;;7.83;79.66;98210.81;5082120;28;20037;-37
2023/10/12 03:05:18;;;;;;;4.45;2.58;;;;;;;7.97;78.48;98223.94;5067821;28;20048;-36
2023/10/12 03:07:44;;;;;;;5.00;2.05;;;;;;;7.92;78.54;98212.97;5066425;28;20039;-37
2023/10/12 03:10:54;;;;;;;7.65;2.50;;;;;;;7.44;84.28;98230.72;5064737;28;20070;-37
2023/10/12 03:13:04;;;;;;;6.93;2.33;;;;;;;6.95;91.33;98222.59;5066454;28;20135;-36
2023/10/12 03:15:48;;;;;;;5.00;2.23;;;;;;;6.72;95.87;98214.97;5066065;28;20455;-36
2023/10/12 03:18:14;;;;;;;6.50;2.72;;;;;;;6.56;99.40;98206.19;5052385;28;20289;-36
2023/10/12 03:20:52;;;;;;;6.47;2.10;;;;;;;6.49;100.00;98207.34;5061920;28;20040;-36
2023/10/12 03:23:19;;;;;;;9.38;3.25;;;;;;;6.44;100.00;98204.94;5059824;28;20032;-38
2023/10/12 03:25:46;;;;;;;5.18;2.53;;;;;;;6.44;100.00;98192.03;5060783;28;20044;-37
2023/10/12 03:28:29;;;;;;;4.53;2.28;;;;;;;6.47;100.00;98201.41;5062218;28;20041;-37
2023/10/12 03:31:11;;;;;;;5.43;2.47;;;;;;;6.31;100.00;98136.69;5060756;28;20520;-37
2023/10/12 03:33:39;;;;;;;8.85;2.50;;;;;;;6.55;100.00;98148.53;5062564;28;20607;-36
2023/10/12 03:36:24;;;;;;;5.05;2.55;;;;;;;6.44;100.00;98127.50;5062759;28;20037;-36
2023/10/12 03:52:39;;;;;;;5.65;3.03;;;;;;;7.03;99.95;98161.06;5067320;28;20158;-36
2023/10/12 04:05:21;;;;;;;6.60;2.03;;;;;;;7.44;93.56;98128.16;5064568;28;20045;-37
2023/10/12 04:16:40;;;;;;;;;;;;;;;7.64;90.82;98164.28;5076538;28;20047;-37
2023/10/12 04:21:22;;;;;;;2.95;1.65;;;;;;;7.69;89.99;98158.91;5082157;28;19923;-38
2023/10/12 04:26:37;;;;;;;5.53;2.10;;;;;;;7.78;91.21;98149.88;5064484;28;20040;-39
2023/10/12 04:34:12;;;;;;;7.95;2.90;;;;;;;7.71;88.35;98117.44;5064971;28;20044;-37
2023/10/12 04:44:35;;;;;;;8.07;2.72;;;;;;;8.11;85.49;98135.31;5063156;28;20045;-37
2023/10/12 04:47:04;;;;;;;5.00;2.28;;;;;;;7.96;85.17;98095.47;5058201;28;20052;-37
2023/10/12 04:54:28;;;;;;;5.15;2.67;;;;;;;8.27;85.03;98122.44;5063105;28;20051;-38
2023/10/12 04:57:10;;;;;;;5.57;2.60;;;;;;;8.12;84.59;98100.72;5065300;28;20040;-37
2023/10/12 04:59:49;;;;;;;5.60;2.00;;;;;;;8.24;84.58;98156.22;5064862;28;20047;-36
2023/10/12 05:02:24;;;;;;;8.20;2.88;;;;;;;8.25;83.29;98142.38;5063307;28;20185;-38
2023/10/12 05:09:49;;;;;;;5.63;2.58;;;;;;;8.14;85.82;98113.59;5068015;28;20577;-37
2023/10/12 05:12:23;;;;;;;8.30;3.03;;;;;;;8.27;87.32;98143.97;5054695;28;20041;-37
2023/10/12 05:14:56;;;;;;;5.28;2.17;;;;;;;8.25;85.81;98147.56;5066682;28;20044;-38
2023/10/12 05:17:22;;;;;;;6.10;3.00;;;;;;;8.06;85.73;98106.19;5070117;28;20036;-38
2023/10/12 05:19:48;;;;;;;8.55;3.30;;;;;;;8.18;87.36;98136.66;5042298;28;20064;-37
2023/10/12 05:22:14;;;;;;;5.57;2.30;;;;;;;8.16;89.31;98158.38;5067086;28;20047;-37
2023/10/12 05:24:40;;;;;;;5.93;2.17;;;;;;;7.88;89.50;98099.34;5067339;28;20036;-36
2023/10/12 05:27:28;;;;;;;8.60;2.78;;;;;;;7.92;91.46;98127.59;5066874;28;20535;-37
2023/10/12 05:30:05;;;;;;;3.77;2.33;;;;;;;7.82;92.41;98118.59;5049387;28;20086;-37
2023/10/12 05:32:44;;;;;;;7.15;2.60;;;;;;;7.58;93.86;98099.94;5049028;28;20377;-36
2023/10/12 05:35:16;;;;;;;8.15;4.03;;;;;;;7.64;95.74;98107.38;5065646;28;20051;-37
2023/10/12 05:37:49;;;;;;;8.18;3.10;;;;;;;7.62;97.09;98110.97;5066146;28;20032;-36
2023/10/12 05:40:18;;;;;;;12.23;3.03;;;;;;;7.47;98.11;98070.31;5066837;28;20044;-36
2023/10/12 05:42:50;;;;;;;5.35;2.88;;;;;;;7.39;98.14;98060.31;5079568;28;20068;-37
2023/10/12 05:45:22;;;;;;;8.02;3.80;;;;;;;7.39;99.43;98060.31;5083124;28;20040;-36
2023/10/12 05:47:52;;;;;;;5.18;2.50;;;;;;;7.34;100.00;98043.34;5068279;28;20424;-36
2023/10/12 05:50:23;;;;;;;4.60;2.70;;;;;;;7.30;100.00;98054.75;5068736;28;20040;-36
2023/10/12 05:52:59;;;;;;;10.80;4.03;;;;;;;7.43;100.00;98074.78;5065561;28;20047;-37
2023/10/12 05:55:26;;;;;;;7.35;3.08;;;;;;;7.33;100.00;98063.19;5063649;28;20074;-37
2023/10/12 05:57:55;;;;;;;4.10;2.85;;;;;;;6.89;100.00;98011.03;5067612;28;20128;-37
2023/10/12 06:00:35;;;;;;;6.80;3.20;;;;;;;7.21;100.00;98059.47;5067624;28;20037;-36
2023/10/12 06:03:05;;;;;;;5.53;2.88;;;;;;;7.24;100.00;98063.63;5063221;28;20033;-42
2023/10/12 06:05:32;;;;;;;6.53;2.78;;;;;;;7.21;100.00;98061.22;5066075;28;20052;-37
2023/10/12 06:08:00;;;;;;;7.10;3.28;;;;;;;7.19;100.00;98060.44;5066042;28;20047;-36
2023/10/12 06:10:27;;;;;;;9.97;3.63;;;;;;;7.17;100.00;98046.75;5068722;28;20052;-37
2023/10/12 06:12:53;;;;;;;5.85;3.65;;;;;;;7.22;100.00;98042.22;5065044;28;20431;-36
2023/10/12 06:15:24;;;;;;;8.10;3.25;;;;;;;7.24;100.00;98030.88;5067965;28;20044;-37
2023/10/12 06:17:51;;;;;;;12.48;4.65;;;;;;;7.30;100.00;98032.34;5068034;28;20052;-38
2023/10/12 06:20:30;;;;;;;7.90;3.45;;;;;;;7.32;100.00;98027.94;5066783;28;20120;-36
2023/10/12 06:22:56;;;;;;;6.40;3.33;;;;;;;7.37;100.00;98017.38;5031495;28;20518;-37
2023/10/12 06:25:22;;;;;;;5.38;3.47;;;;;;;7.40;100.00;98023.22;5051358;28;20131;-36
2023/10/12 06:27:49;;;;;;;6.05;3.53;;;;;;;7.31;100.00;97997.84;5047198;28;20763;-41
2023/10/12 06:30:18;;;;;;;8.85;4.15;;;;;;;7.49;100.00;98012.44;5081816;28;20052;-41
2023/10/12 06:32:47;;;;;;;12.18;3.28;;;;;;;7.55;100.00;98022.47;5066212;28;20559;-35
2023/10/12 06:35:24;;;;;;;8.98;4.05;;;;;;;7.41;100.00;97969.78;5066565;28;20071;-39
2023/10/12 06:45:47;;;;;;;7.70;3.10;;;;;;;7.78;100.00;97997.25;5067125;28;20044;-37
2023/10/12 06:51:02;;;;;;;9.40;3.20;;;;;;;7.93;100.00;98002.47;5065948;28;20067;-39
2023/10/12 06:53:34;;;;;;;3.20;2.17;;;;;;;8.01;99.97;97997.75;5075770;28;20033;-40
2023/10/12 07:04:16;;;;;;;6.32;3.00;;;;;;;8.37;96.06;97987.28;5064549;28;20051;-37
2023/10/12 07:07:27;;;;;;;8.52;3.47;;;;;;;8.42;94.12;97997.41;5047928;28;20044;-44
2023/10/12 07:09:46;;;;;;;7.43;3.25;;;;;;;8.51;93.49;97989.16;5061393;28;20144;-39
2023/10/12 07:12:19;;;;;;;7.68;3.67;;;;;;;8.56;93.66;97974.19;5065859;28;20758;-36
2023/10/12 07:14:53;;;;;;;6.20;3.30;;;;;;;8.60;93.62;97967.09;5064504;28;20094;-36
2023/10/12 07:17:32;;;;;;;12.52;4.47;;;;;;;8.57;93.46;97931.00;5067125;28;20060;-37
2023/10/12 07:19:58;;;;;;;6.77;3.60;;;;;;;8.64;93.21;97940.09;5065260;28;20462;-35
2023/10/12 07:22:24;;;;;;;4.07;2.85;;;;;;;8.80;92.46;97949.53;5064851;28;20419;-36
2023/10/12 07:24:53;;;;;;;8.30;3.30;;;;;;;8.87;92.10;97944.88;5066296;28;20048;-35
2023/10/12 07:27:24;;;;;;;7.45;3.90;;;;;;;8.93;91.87;97929.00;5062692;28;20036;-35
2023/10/12 07:32:41;;;;;;;6.38;3.10;;;;;;;9.14;90.71;97914.81;5064140;28;20047;-35
2023/10/12 07:35:12;;;;;;;5.57;2.92;;;;;;;9.31;88.88;97925.06;5047490;28;20125;-35
2023/10/12 07:37:42;;;;;;;7.00;3.38;;;;;;;9.38;87.74;97915.16;5065059;28;20040;-34
2023/10/12 07:40:19;;;;;;;13.35;4.40;;;;;;;9.43;87.25;97925.25;5065668;28;20123;-36
2023/10/12 07:42:48;;;;;;;9.27;3.95;;;;;;;9.51;86.42;97913.53;5063366;28;20040;-35
2023/10/12 07:45:18;;;;;;;6.70;4.30;;;;;;;9.58;85.55;97912.25;5033253;28;20069;-35
2023/10/12 07:47:58;;;;;;;6.35;3.83;;;;;;;9.60;83.90;97910.41;5065695;28;20097;-37
2023/10/12 07:50:25;;;;;;;12.55;3.72;;;;;;;9.63;83.87;97883.47;5064523;28;20169;-36
2023/10/12 07:52:59;;;;;;;8.45;4.32;;;;;;;9.71;83.46;97889.00;5065684;28;20138;-35
2023/10/12 07:55:28;;;;;;;8.73;3.90;;;;;;;9.63;84.60;97880.88;5065876;28;20051;-35
2023/10/12 07:57:54;;;;;;;5.13;3.05;;;;;;;9.48;86.52;97885.19;5066608;28;20036;-34
2023/10/12 08:00:34;;;;;;;15.65;4.70;;;;;;;9.38;88.69;97865.06;5064709;28;20045;-35
2023/10/12 08:03:17;;;;;;;9.52;4.30;;;;;;;9.42;89.85;97858.78;5047984;28;20041;-36
2023/10/12 08:05:46;;;;;;;8.20;3.50;;;;;;;9.50;89.70;97870.38;5061983;28;20131;-34
2023/10/12 08:08:33;;;;;;;12.05;4.18;;;;;;;9.47;87.54;97825.63;5064438;28;20086;-36
2023/10/12 08:10:59;;;;;;;9.02;3.60;;;;;;;9.69;87.29;97842.41;5064707;28;20719;-35
2023/10/12 08:31:45;;;;;;;11.32;4.65;;;;;;;10.44;78.53;97804.88;5063770;28;20045;-36
2023/10/12 08:39:38;;;;;;;8.68;3.20;;;;;;;10.55;75.96;97805.03;5079090;28;20047;-36
2023/10/12 08:44:55;;;;;;;14.57;4.07;;;;;;;10.61;75.31;97807.22;5064984;28;20044;-36
2023/10/12 08:52:33;;;;;;;11.27;4.35;;;;;;;9.73;84.74;97768.63;5068494;28;20038;-35
2023/10/12 08:55:12;;;;;;;7.93;3.33;;;;;;;9.61;88.84;97768.56;5051313;28;20037;-35
2023/10/12 08:57:52;;;;;;;16.58;5.85;;;;;;;9.52;90.36;97775.16;5050907;28;20040;-36
2023/10/12 09:03:05;;;;;;;7.35;4.30;;;;;;;9.27;94.86;97756.78;5067886;28;20044;-34
2023/10/12 09:05:31;;;;;;;5.00;2.78;;;;;;;9.07;99.10;97757.13;5062290;28;20097;-35
2023/10/12 09:10:49;;;;;;;12.73;4.38;;;;;;;8.99;100.00;97759.34;5068655;28;20048;-36
2023/10/12 09:13:17;;;;;;;8.18;4.45;;;;;;;8.86;100.00;97715.19;5069188;28;20059;-35
2023/10/12 09:15:48;;;;;;;11.75;5.38;;;;;;;8.99;100.00;97746.41;5062787;28;20415;-36
2023/10/12 09:18:16;;;;;;;10.77;5.10;;;;;;;8.95;100.00;97735.34;5068247;28;20089;-35
2023/10/12 09:21:18;;;;;;;12.57;4.40;;;;;;;8.98;100.00;97737.78;5068378;28;20036;-35
2023/10/12 09:23:38;;;;;;;10.07;4.07;;;;;;;8.98;100.00;97735.19;5065017;28;20082;-35
2023/10/12 09:31:16;;;;;;;9.82;4.40;;;;;;;9.10;100.00;97772.53;5063286;28;20036;-35
2023/10/12 09:34:31;;;;;;;11.05;4.63;;;;;;;9.08;100.00;97788.16;5057394;28;20511;-36
2023/10/12 09:36:55;;;;;;;11.18;5.25;;;;;;;8.99;100.00;97793.88;5067321;28;20052;-36
2023/10/12 09:39:26;;;;;;;13.85;4.88;;;;;;;8.92;100.00;97797.75;5067613;28;20067;-34
2023/10/12 09:42:14;;;;;;;12.68;5.82;;;;;;;8.73;100.00;97784.19;5064688;28;20048;-36
2023/10/12 09:44:40;;;;;;;11.40;5.32;;;;;;;8.90;100.00;97815.97;5060370;28;20309;-35
2023/10/12 09:47:23;;;;;;;17.35;6.63;;;;;;;8.91;100.00;97812.44;5066105;28;20811;-34
2023/10/12 09:49:55;;;;;;;11.43;5.55;;;;;;;8.95;100.00;97814.88;5062500;28;20040;-35
2023/10/12 09:52:40;;;;;;;14.85;6.75;;;;;;;8.98;100.00;97810.34;5064543;28;20111;-35
2023/10/12 09:55:13;;;;;;;13.93;7.47;;;;;;;9.02;100.00;97817.00;5061974;28;20101;-34
2023/10/12 09:57:49;;;;;;;14.02;6.72;;;;;;;9.06;100.00;97807.28;5067071;28;20047;-36
2023/10/12 10:00:55;;;;;;;18.55;7.60;;;;;;;9.09;100.00;97809.72;5064532;28;20085;-36
2023/10/12 10:03:17;;;;;;;16.00;6.10;;;;;;;9.11;100.00;97829.44;5043662;28;20040;-35
2023/10/12 10:06:01;;;;;;;14.13;6.63;;;;;;;9.16;100.00;97811.06;5063926;28;20409;-34
2023/10/12 10:08:29;;;;;;;9.60;5.38;;;;;;;9.26;100.00;97823.34;5072748;28;20060;-36
2023/10/12 10:10:58;;;;;;;12.50;5.93;;;;;;;9.17;100.00;97784.19;5060862;28;20052;-37
2023/10/12 10:13:47;;;;;;;15.73;5.72;;;;;;;9.42;100.00;97817.28;5046099;28;20045;-36
2023/10/12 10:16:17;;;;;;;11.27;5.47;;;;;;;9.50;100.00;97828.03;5048654;28;20045;-34
2023/10/12 10:19:36;;;;;;;10.95;5.47;;;;;;;9.54;100.00;97821.72;5039082;28;20056;-36
2023/10/12 10:21:38;;;;;;;15.32;7.00;;;;;;;9.58;100.00;97811.06;5050562;28;20040;-35
2023/10/12 10:24:12;;;;;;;14.98;6.70;;;;;;;9.67;100.00;97826.09;5060416;28;20044;-36
2023/10/12 10:26:39;;;;;;;12.98;6.00;;;;;;;9.70;100.00;97825.91;5046623;28;20045;-36
2023/10/12 10:29:05;;;;;;;15.90;7.13;;;;;;;9.77;100.00;97823.78;5049207;28;20036;-36
2023/10/12 10:31:35;;;;;;;9.07;5.03;;;;;;;9.69;100.00;97792.25;5064003;28;20416;-36
2023/10/12 10:34:06;;;;;;;11.18;5.88;;;;;;;9.95;100.00;97821.81;5060203;28;20033;-36
2023/10/12 10:36:36;;;;;;;12.23;5.25;;;;;;;10.02;100.00;97830.91;5065641;28;20638;-35
2023/10/12 10:39:50;;;;;;;18.65;7.53;;;;;;;10.09;100.00;97838.22;5061337;28;20036;-35
2023/10/12 10:44:22;;;;;;;11.82;4.82;;;;;;;10.11;100.00;97838.09;5064460;28;20044;-35
2023/10/12 10:46:54;;;;;;;15.95;6.72;;;;;;;9.95;100.00;97821.81;5072653;28;20044;-35
2023/10/12 10:49:21;;;;;;;9.98;5.72;;;;;;;10.16;100.00;97843.88;5080401;28;20048;-35
2023/10/12 10:51:59;;;;;;;15.23;6.03;;;;;;;9.99;100.00;97811.16;5040812;28;20041;-35
2023/10/12 10:54:27;;;;;;;12.73;6.63;;;;;;;10.22;100.00;97859.09;5064605;28;20186;-35
2023/10/12 10:56:54;;;;;;;6.53;4.10;;;;;;;10.03;100.00;97820.41;5065215;28;20044;-36
2023/10/12 10:59:20;;;;;;;12.30;5.65;;;;;;;9.92;100.00;97809.88;5046345;28;20060;-35
2023/10/12 11:01:50;;;;;;;11.32;5.88;;;;;;;10.22;100.00;97851.28;5061562;28;20127;-35
2023/10/12 11:04:18;;;;;;;10.18;4.95;;;;;;;10.18;100.00;97855.84;5067362;28;20076;-36
2023/10/12 11:06:47;;;;;;;14.48;6.65;;;;;;;10.22;100.00;97851.28;5064311;28;20067;-35
2023/10/12 11:09:17;;;;;;;12.57;5.55;;;;;;;10.22;100.00;97851.28;5065159;28;20126;-36
2023/10/12 11:11:48;;;;;;;9.98;4.50;;;;;;;10.23;100.00;97865.94;5063674;28;20037;-34
2023/10/12 11:14:17;;;;;;;12.20;5.38;;;;;;;10.17;100.00;97872.34;5063565;28;20043;-35
2023/10/12 11:16:46;;;;;;;12.18;5.70;;;;;;;10.13;100.00;97880.41;5062758;28;20641;-37
2023/10/12 11:19:12;;;;;;;13.20;6.90;;;;;;;9.98;100.00;97853.63;5062079;28;20528;-35
2023/10/12 11:21:57;;;;;;;14.57;6.32;;;;;;;9.98;100.00;97863.16;5061610;28;20432;-35
2023/10/12 11:24:24;;;;;;;14.05;7.25;;;;;;;10.12;100.00;97881.31;5060961;28;20107;-43
2023/10/12 11:26:54;;;;;;;15.55;7.85;;;;;;;10.11;100.00;97892.63;5061787;28;20431;-35
2023/10/12 11:29:24;;;;;;;15.32;7.50;;;;;;;10.09;100.00;97910.91;5073091;28;20121;-35
2023/10/12 11:32:16;;;;;;;14.60;6.57;;;;;;;10.14;100.00;97874.28;5074826;28;20036;-35
2023/10/12 11:34:52;;;;;;;15.35;6.78;;;;;;;10.11;100.00;97892.63;5056253;28;20047;-35
2023/10/12 11:37:19;;;;;;;10.80;6.80;;;;;;;9.93;100.00;97862.63;5063422;28;20130;-36
2023/10/12 11:39:46;;;;;;;15.43;7.32;;;;;;;10.16;100.00;97911.38;5065057;28;20040;-36
2023/10/12 11:42:13;;;;;;;12.50;7.28;;;;;;;10.19;100.00;97874.88;5064275;28;20040;-36
2023/10/12 11:44:51;;;;;;;13.40;6.07;;;;;;;10.26;100.00;97875.34;5034392;28;20045;-36
2023/10/12 11:47:17;;;;;;;12.93;5.78;;;;;;;10.27;100.00;97882.16;5075487;28;20044;-35
2023/10/12 11:49:55;;;;;;;14.73;7.85;;;;;;;10.25;100.00;97860.69;5062250;28;20972;-35
2023/10/12 11:55:18;;;;;;;7.72;4.47;;;;;;;10.28;100.00;97883.84;5057411;28;20280;-34
2023/10/12 11:57:53;;;;;;;15.32;6.32;;;;;;;10.31;100.00;97892.28;5060562;28;20097;-35
2023/10/12 12:00:29;;;;;;;14.05;7.65;;;;;;;10.34;100.00;97896.44;5062245;28;20053;-34
2023/10/12 12:03:02;;;;;;;15.95;6.32;;;;;;;10.35;100.00;97885.13;5059944;28;20039;-35
2023/10/12 12:05:33;;;;;;;12.15;6.57;;;;;;;10.38;100.00;97870.19;5063825;28;20036;-35
2023/10/12 12:08:06;;;;;;;14.57;6.55;;;;;;;10.38;100.00;97877.16;5048514;28;20064;-35
2023/10/12 12:10:44;;;;;;;10.77;5.82;;;;;;;10.41;100.00;97848.41;5061280;28;20082;-35
2023/10/12 12:13:12;;;;;;;9.97;6.00;;;;;;;10.46;100.00;97825.56;5062307;28;20044;-36
2023/10/12 12:15:47;;;;;;;13.85;6.45;;;;;;;10.37;100.00;97826.97;5063120;28;20866;-35
2023/10/12 12:18:21;;;;;;;9.23;5.50;;;;;;;10.33;100.00;97767.53;5079351;28;20154;-34
2023/10/12 12:20:50;;;;;;;11.88;6.13;;;;;;;10.60;100.00;97786.53;5066706;28;20064;-35
2023/10/12 12:23:17;;;;;;;9.90;5.10;;;;;;;10.66;100.00;97765.34;5060361;28;20080;-35
2023/10/12 12:25:44;;;;;;;11.25;6.45;;;;;;;10.73;100.00;97732.81;5066351;28;20052;-34
2023/10/12 12:28:14;;;;;;;11.93;6.32;;;;;;;10.82;100.00;97708.00;5070061;28;20054;-36
2023/10/12 12:30:51;;;;;;;8.85;4.40;;;;;;;10.90;100.00;97727.34;5066846;28;20032;-34
2023/10/12 12:33:18;;;;;;;10.25;4.88;;;;;;;10.76;100.00;97742.19;5067921;28;20044;-36
2023/10/12 12:35:48;;;;;;;10.50;4.35;;;;;;;10.94;100.00;97780.78;5066167;28;20136;-35
2023/10/12 12:40:59;;;;;;;7.18;4.32;;;;;;;11.09;100.00;97791.97;5068599;28;20072;-34
2023/10/12 12:43:26;;;;;;;10.07;5.07;;;;;;;11.13;100.00;97792.56;5051110;28;20068;-35
2023/10/12 12:45:54;;;;;;;10.45;4.80;;;;;;;11.21;100.00;97809.31;5064224;28;20048;-35
2023/10/12 12:48:20;;;;;;;10.80;6.00;;;;;;;11.22;100.00;97817.97;5068114;28;20059;-34
2023/10/12 12:50:49;;;;;;;14.45;5.90;;;;;;;11.19;100.00;97810.38;5062712;28;20051;-35
2023/10/12 12:53:18;;;;;;;11.55;5.53;;;;;;;11.28;100.00;97794.97;5065523;28;20036;-35
2023/10/12 12:55:48;;;;;;;12.50;5.00;;;;;;;11.31;100.00;97796.53;5064939;28;20051;-34
2023/10/12 12:58:18;;;;;;;7.10;4.20;;;;;;;11.32;100.00;97832.03;5064675;28;20051;-35
2023/10/12 13:00:47;;;;;;;11.77;5.70;;;;;;;11.35;100.00;97813.63;5046601;28;20420;-35
2023/10/12 13:03:14;;;;;;;12.35;5.68;;;;;;;11.39;100.00;97812.47;5030478;28;20483;-36
2023/10/12 13:05:40;;;;;;;12.48;5.35;;;;;;;11.42;100.00;97807.03;5036849;28;20088;-36
2023/10/12 13:08:07;;;;;;;8.13;4.90;;;;;;;11.43;100.00;97822.56;5049662;28;20087;-36
2023/10/12 13:10:35;;;;;;;11.65;6.35;;;;;;;11.47;100.00;97825.78;5062685;28;20045;-34
2023/10/12 13:13:01;;;;;;;10.77;5.82;;;;;;;11.46;100.00;97813.72;5065636;28;20067;-35
2023/10/12 13:15:27;;;;;;;12.32;5.65;;;;;;;11.19;100.00;97755.75;5064660;28;20032;-36
2023/10/12 13:17:56;;;;;;;10.38;5.55;;;;;;;11.50;100.00;97807.38;5067966;28;20053;-36
2023/10/12 13:20:22;;;;;;;9.23;4.72;;;;;;;11.51;100.00;97801.25;5060811;28;20089;-36
2023/10/12 13:22:49;;;;;;;9.88;5.63;;;;;;;11.31;100.00;97763.53;5062784;28;20041;-37
2023/10/12 13:25:18;;;;;;;9.75;4.40;;;;;;;11.53;100.00;97814.97;5062459;28;20471;-37
2023/10/12 13:27:46;;;;;;;11.15;5.18;;;;;;;11.54;100.00;97802.78;5064923;28;20669;-36
2023/10/12 13:30:14;;;;;;;8.15;5.22;;;;;;;11.28;100.00;97758.56;5066931;28;20082;-37
2023/10/12 13:32:43;;;;;;;11.80;5.88;;;;;;;11.48;100.00;97793.63;5066444;28;20055;-37
2023/10/12 13:35:28;;;;;;;9.90;4.72;;;;;;;11.48;100.00;97814.44;5067191;28;20152;-41
2023/10/12 13:37:56;;;;;;;9.75;4.72;;;;;;;11.57;100.00;97806.00;5063994;28;20048;-35
2023/10/12 13:40:22;;;;;;;10.43;5.35;;;;;;;11.61;100.00;97802.28;5061954;28;20097;-38
2023/10/12 13:42:48;;;;;;;8.68;4.90;;;;;;;11.63;100.00;97799.53;5068538;28;20527;-36
2023/10/12 13:45:18;;;;;;;7.32;4.35;;;;;;;11.64;100.00;97812.47;5061404;28;20049;-36
2023/10/12 13:47:48;;;;;;;6.57;3.47;;;;;;;11.64;100.00;97794.25;5063274;28;20072;-36
2023/10/12 13:50:14;;;;;;;;;;;;;;;11.54;100.00;97790.63;5063785;28;20044;-36
2023/10/12 13:52:41;;;;;;;3.30;2.40;;;;;;;11.51;100.00;97753.56;5049911;28;19916;-36
2023/10/12 13:55:14;;;;;;;3.58;2.45;;;;;;;11.70;100.00;97779.97;5066243;28;20044;-37
2023/10/12 13:58:06;;;;;;;5.38;3.00;;;;;;;11.72;100.00;97807.56;5063806;28;20052;-36
2023/10/12 14:00:34;;;;;;;6.85;3.40;;;;;;;11.80;100.00;97794.88;5063663;28;20507;-37
2023/10/12 14:03:10;;;;;;;5.75;2.92;;;;;;;11.83;100.00;97793.81;5064708;28;20036;-37
2023/10/12 14:05:40;;;;;;;6.43;3.33;;;;;;;11.84;100.00;97798.09;5062631;28;20131;-38
2023/10/12 14:08:09;;;;;;;5.22;2.58;;;;;;;11.82;100.00;97787.81;5066649;28;20419;-38
2023/10/12 14:10:40;;;;;;;;;;;;;;;11.83;100.00;97814.66;5079032;28;20041;-37
2023/10/12 14:13:07;;;;;;;6.22;2.78;;;;;;;11.81;100.00;97806.97;5076528;28;20026;-36
2023/10/12 14:15:35;;;;;;;11.18;3.38;;;;;;;11.86;100.00;97817.91;5044893;28;20036;-36
2023/10/12 14:18:04;;;;;;;8.80;3.72;;;;;;;11.88;100.00;97815.16;5062158;28;20044;-37
2023/10/12 14:20:33;;;;;;;8.18;2.58;;;;;;;11.92;100.00;97814.03;5063859;28;20063;-36
2023/10/12 14:23:05;;;;;;;6.55;3.20;;;;;;;12.02;100.00;97809.84;5053313;28;20036;-38
2023/10/12 14:25:35;;;;;;;5.75;3.25;;;;;;;12.15;100.00;97807.19;5066261;28;20692;-37
2023/10/12 14:28:03;;;;;;;;;;;;;;;12.27;100.00;97829.78;5066889;28;20134;-37